createdAt,value
2023-01-13T00:01:08.545Z,99262.94
2023-01-13T00:03:38.342Z,99267.59
2023-01-13T00:06:07.088Z,99248.91
2023-01-13T00:08:35.889Z,99251.72
2023-01-13T00:11:03.546Z,99244.81
2023-01-13T00:13:33.496Z,99242.38
2023-01-13T00:16:03.879Z,99232.59
2023-01-13T00:18:31.968Z,99237.09
2023-01-13T00:21:02.386Z,99230.78
2023-01-13T00:23:32.414Z,99231.59
2023-01-13T00:26:05.839Z,99228.53
2023-01-13T00:28:33.910Z,99251.91
2023-01-13T00:31:05.981Z,99252.56
2023-01-13T00:33:33.966Z,99244.22
2023-01-13T00:36:04.222Z,99244.22
2023-01-13T00:38:33.412Z,99249.72
2023-01-13T00:41:02.587Z,99247.72
2023-01-13T00:43:31.205Z,99248.72
2023-01-13T00:45:59.946Z,99238.34
2023-01-13T00:48:28.935Z,99219.19
2023-01-13T00:50:57.957Z,99228.94
2023-01-13T00:53:28.382Z,99227.91
2023-01-13T00:56:06.882Z,99229.31
2023-01-13T00:58:35.923Z,99230.13
2023-01-13T01:01:04.941Z,99241.91
2023-01-13T01:03:32.963Z,99228.47
2023-01-13T01:06:06.314Z,99237.56
2023-01-13T01:08:35.764Z,99244.44
2023-01-13T01:11:08.355Z,99242.38
2023-01-13T01:13:36.402Z,99243.59
2023-01-13T01:16:06.721Z,99251.47
2023-01-13T01:18:34.875Z,99256.06
2023-01-13T01:21:02.566Z,99244.81
2023-01-13T01:23:30.362Z,99253.03
2023-01-13T01:26:02.728Z,99261.47
2023-01-13T01:28:31.592Z,99255.25
2023-01-13T01:30:59.747Z,99260.38
2023-01-13T01:33:27.767Z,99262.13
2023-01-13T01:35:55.808Z,99264.16
2023-01-13T01:38:23.719Z,99266.97
2023-01-13T01:40:51.450Z,99262.03
2023-01-13T01:43:39.886Z,99259.41
2023-01-13T01:46:08.018Z,99265.25
2023-01-13T01:48:38.637Z,99279.63
2023-01-13T01:51:09.577Z,99266.00
2023-01-13T01:53:37.711Z,99263.25
2023-01-13T01:56:06.159Z,99267.44
2023-01-13T01:58:41.706Z,99268.19
2023-01-13T02:01:09.896Z,99276.44
2023-01-13T02:03:40.846Z,99259.00
2023-01-13T02:06:09.590Z,99266.56
2023-01-13T02:08:39.613Z,99265.00
2023-01-13T02:11:28.090Z,99269.28
2023-01-13T02:13:56.291Z,99255.16
2023-01-13T02:16:25.335Z,99257.63
2023-01-13T02:19:01.600Z,99247.53
2023-01-13T02:22:04.331Z,99259.97
2023-01-13T02:25:04.650Z,99263.13
2023-01-13T02:28:00.308Z,99263.00
2023-01-13T02:30:59.569Z,99276.91
2023-01-13T02:33:37.532Z,99270.88
2023-01-13T02:36:12.506Z,99269.34
2023-01-13T02:38:48.075Z,99272.41
2023-01-13T02:41:40.563Z,99273.97
2023-01-13T02:44:10.923Z,99280.38
2023-01-13T02:46:51.237Z,99270.38
2023-01-13T02:49:26.045Z,99267.47
2023-01-13T02:51:59.997Z,99257.47
2023-01-13T02:54:30.521Z,99271.41
2023-01-13T02:57:00.370Z,99267.50
2023-01-13T02:59:31.327Z,99271.59
2023-01-13T03:02:03.353Z,99270.41
2023-01-13T03:04:53.559Z,99271.41
2023-01-13T03:07:53.274Z,99268.50
2023-01-13T03:10:38.780Z,99279.53
2023-01-13T03:13:18.437Z,99284.28
2023-01-13T03:15:55.499Z,99263.44
2023-01-13T03:18:37.664Z,99276.44
2023-01-13T03:21:09.211Z,99274.91
2023-01-13T03:23:46.598Z,99258.88
2023-01-13T03:26:21.848Z,99278.88
2023-01-13T03:28:55.179Z,99274.06
2023-01-13T03:31:28.863Z,99272.34
2023-01-13T03:34:02.138Z,99269.88
2023-01-13T03:36:33.441Z,99259.34
2023-01-13T03:39:07.517Z,99257.34
2023-01-13T03:41:39.818Z,99261.41
2023-01-13T03:44:24.627Z,99268.72
2023-01-13T03:47:02.588Z,99271.97
2023-01-13T03:49:39.666Z,99270.16
2023-01-13T03:52:13.635Z,99264.34
2023-01-13T03:54:48.713Z,99268.25
2023-01-13T03:57:19.033Z,99262.25
2023-01-13T03:59:51.506Z,99257.63
2023-01-13T04:02:25.443Z,99264.97
2023-01-13T04:04:59.159Z,99262.44
2023-01-13T04:07:38.846Z,99268.66
2023-01-13T04:10:09.607Z,99269.25
2023-01-13T04:12:58.834Z,99269.25
2023-01-13T04:15:28.936Z,99270.34
2023-01-13T04:18:03.167Z,99272.19
2023-01-13T04:20:32.323Z,99277.25
2023-01-13T04:23:00.241Z,99269.16
2023-01-13T04:25:27.912Z,99281.00
2023-01-13T04:27:55.630Z,99279.63
2023-01-13T04:30:23.308Z,99286.19
2023-01-13T04:32:51.053Z,99275.09
2023-01-13T04:35:18.788Z,99271.06
2023-01-13T04:37:48.387Z,99270.88
2023-01-13T04:40:16.363Z,99275.91
2023-01-13T04:42:45.553Z,99277.81
2023-01-13T04:45:13.784Z,99272.97
2023-01-13T04:47:42.351Z,99257.47
2023-01-13T04:50:12.137Z,99258.09
2023-01-13T04:52:40.169Z,99263.78
2023-01-13T04:55:10.596Z,99265.22
2023-01-13T04:57:38.621Z,99261.19
2023-01-13T05:00:08.542Z,99259.81
2023-01-13T05:02:36.364Z,99256.59
2023-01-13T05:05:04.486Z,99259.31
2023-01-13T05:07:32.357Z,99259.34
2023-01-13T05:10:00.735Z,99247.72
2023-01-13T05:12:47.078Z,99248.44
2023-01-13T05:15:33.017Z,99250.13
2023-01-13T05:18:01.495Z,99241.94
2023-01-13T05:20:29.373Z,99234.56
2023-01-13T05:23:14.753Z,99241.00
2023-01-13T05:25:44.534Z,99244.16
2023-01-13T05:28:13.809Z,99238.59
2023-01-13T05:30:44.292Z,99245.66
2023-01-13T05:33:13.058Z,99245.19
2023-01-13T05:35:42.409Z,99240.09
2023-01-13T05:38:10.401Z,99256.22
2023-01-13T05:40:59.401Z,99243.91
2023-01-13T05:43:29.173Z,99247.22
2023-01-13T05:45:59.784Z,99259.38
2023-01-13T05:48:29.702Z,99239.81
2023-01-13T05:50:57.923Z,99242.44
2023-01-13T05:53:25.805Z,99249.34
2023-01-13T05:55:54.088Z,99249.34
2023-01-13T05:58:23.913Z,99251.78
2023-01-13T06:00:53.330Z,99246.66
2023-01-13T06:03:21.369Z,99252.88
2023-01-13T06:05:50.341Z,99241.31
2023-01-13T06:08:18.921Z,99229.25
2023-01-13T06:10:46.909Z,99230.19
2023-01-13T06:13:14.703Z,99225.22
2023-01-13T06:15:42.602Z,99214.19
2023-01-13T06:18:11.837Z,99220.22
2023-01-13T06:20:39.743Z,99227.34
2023-01-13T06:23:09.724Z,99231.28
2023-01-13T06:25:43.227Z,99226.75
2023-01-13T06:28:11.701Z,99236.63
2023-01-13T06:30:43.597Z,99235.16
2023-01-13T06:33:16.014Z,99224.44
2023-01-13T06:35:47.614Z,99230.53
2023-01-13T06:38:18.736Z,99224.44
2023-01-13T06:40:46.781Z,99214.47
2023-01-13T06:43:17.048Z,99212.16
2023-01-13T06:45:48.791Z,99225.03
2023-01-13T06:48:18.603Z,99224.06
2023-01-13T06:50:46.585Z,99239.47
2023-01-13T06:53:14.301Z,99231.41
2023-01-13T06:55:42.358Z,99241.88
2023-01-13T06:58:10.330Z,99249.53
2023-01-13T07:00:38.176Z,99257.66
2023-01-13T07:03:07.464Z,99244.25
2023-01-13T07:05:36.540Z,99266.53
2023-01-13T07:08:04.699Z,99263.00
2023-01-13T07:10:32.689Z,99257.84
2023-01-13T07:13:19.361Z,99260.22
2023-01-13T07:15:58.139Z,99272.84
2023-01-13T07:18:27.397Z,99274.78
2023-01-13T07:20:59.112Z,99269.31
2023-01-13T07:23:29.084Z,99271.69
2023-01-13T07:25:57.251Z,99279.13
2023-01-13T07:28:25.147Z,99280.22
2023-01-13T07:30:53.286Z,99282.19
2023-01-13T07:33:21.658Z,99279.38
2023-01-13T07:35:50.111Z,99282.47
2023-01-13T07:38:19.152Z,99290.69
2023-01-13T07:40:46.885Z,99277.94
2023-01-13T07:43:32.033Z,99297.69
2023-01-13T07:46:01.097Z,99285.78
2023-01-13T07:48:29.335Z,99283.97
2023-01-13T07:50:57.143Z,99283.69
2023-01-13T07:53:26.198Z,99283.38
2023-01-13T07:55:56.716Z,99283.13
2023-01-13T07:58:24.848Z,99291.66
2023-01-13T08:00:53.281Z,99300.56
2023-01-13T08:03:21.325Z,99307.16
2023-01-13T08:05:49.366Z,99315.44
2023-01-13T08:08:17.148Z,99314.50
2023-01-13T08:10:46.463Z,99312.88
2023-01-13T08:13:19.990Z,99311.88
2023-01-13T08:15:49.708Z,99315.34
2023-01-13T08:18:20.784Z,99321.03
2023-01-13T08:20:49.544Z,99314.97
2023-01-13T08:23:17.410Z,99311.34
2023-01-13T08:25:46.617Z,99317.53
2023-01-13T08:28:15.843Z,99320.00
2023-01-13T08:30:43.859Z,99316.13
2023-01-13T08:33:13.580Z,99325.94
2023-01-13T08:35:42.603Z,99317.50
2023-01-13T08:38:10.719Z,99319.59
2023-01-13T08:40:40.861Z,99315.69
2023-01-13T08:43:10.087Z,99332.69
2023-01-13T08:45:38.042Z,99317.34
2023-01-13T08:48:06.238Z,99311.19
2023-01-13T08:50:33.961Z,99331.34
2023-01-13T08:53:01.908Z,99329.47
2023-01-13T08:55:29.826Z,99331.66
2023-01-13T08:58:14.100Z,99324.19
2023-01-13T09:00:44.813Z,99325.38
2023-01-13T09:03:12.864Z,99306.81
2023-01-13T09:05:40.607Z,99322.06
2023-01-13T09:08:08.370Z,99321.53
2023-01-13T09:10:36.831Z,99322.06
2023-01-13T09:13:12.845Z,99316.53
2023-01-13T09:15:42.308Z,99316.41
2023-01-13T09:18:11.795Z,99321.13
2023-01-13T09:20:40.160Z,99326.63
2023-01-13T09:23:10.658Z,99339.91
2023-01-13T09:25:39.079Z,99340.44
2023-01-13T09:28:08.135Z,99339.72
2023-01-13T09:30:37.136Z,99342.91
2023-01-13T09:33:22.514Z,99351.66
2023-01-13T09:35:51.630Z,99349.50
2023-01-13T09:38:19.445Z,99350.66
2023-01-13T09:40:49.868Z,99342.84
2023-01-13T09:43:39.766Z,99352.97
2023-01-13T09:46:31.328Z,99338.03
2023-01-13T09:49:00.242Z,99348.47
2023-01-13T09:51:35.176Z,99353.84
2023-01-13T09:54:09.946Z,99352.38
2023-01-13T09:56:37.706Z,99359.88
2023-01-13T09:59:06.056Z,99346.38
2023-01-13T10:01:41.628Z,99342.16
2023-01-13T10:04:13.023Z,99341.38
2023-01-13T10:06:45.294Z,99337.94
2023-01-13T10:09:19.081Z,99343.56
2023-01-13T10:12:07.063Z,99362.63
2023-01-13T10:14:40.817Z,99343.91
2023-01-13T10:17:17.849Z,99356.47
2023-01-13T10:19:51.765Z,99354.91
2023-01-13T10:22:41.558Z,99353.31
2023-01-13T10:25:21.938Z,99347.69
2023-01-13T10:27:51.678Z,99351.16
2023-01-13T10:30:23.681Z,99349.38
2023-01-13T10:32:55.808Z,99344.78
2023-01-13T10:35:52.806Z,99338.75
2023-01-13T10:38:24.935Z,99338.63
2023-01-13T10:40:55.670Z,99342.97
2023-01-13T10:43:23.973Z,99334.41
2023-01-13T10:45:57.892Z,99339.31
2023-01-13T10:48:34.168Z,99339.72
2023-01-13T10:51:12.143Z,99346.25
2023-01-13T10:53:51.749Z,99341.41
2023-01-13T10:56:21.255Z,99345.25
2023-01-13T10:58:49.001Z,99359.97
2023-01-13T11:01:26.726Z,99355.47
2023-01-13T11:03:55.615Z,99354.00
2023-01-13T11:06:26.638Z,99345.38
2023-01-13T11:08:58.306Z,99362.81
2023-01-13T11:11:43.065Z,99359.75
2023-01-13T11:14:39.720Z,99353.31
2023-01-13T11:17:17.098Z,99363.28
2023-01-13T11:19:51.292Z,99355.25
2023-01-13T11:22:26.380Z,99358.88
2023-01-13T11:25:01.461Z,99346.09
2023-01-13T11:27:40.908Z,99352.44
2023-01-13T11:30:18.918Z,99355.47
2023-01-13T11:33:00.659Z,99367.59
2023-01-13T11:35:30.749Z,99369.59
2023-01-13T11:38:04.106Z,99363.66
2023-01-13T11:40:37.501Z,99366.75
2023-01-13T11:43:13.383Z,99365.81
2023-01-13T11:45:45.850Z,99365.94
2023-01-13T11:48:16.349Z,99355.38
2023-01-13T11:50:51.439Z,99365.97
2023-01-13T11:53:34.920Z,99360.25
2023-01-13T11:56:17.033Z,99360.13
2023-01-13T11:59:18.460Z,99354.97
2023-01-13T12:02:01.036Z,99367.97
2023-01-13T12:04:36.153Z,99357.47
2023-01-13T12:07:15.050Z,99372.13
2023-01-13T12:09:56.343Z,99364.97
2023-01-13T12:12:39.840Z,99368.25
2023-01-13T12:15:36.832Z,99375.34
2023-01-13T12:18:21.538Z,99376.06
2023-01-13T12:21:03.823Z,99381.25
2023-01-13T12:23:36.050Z,99379.75
2023-01-13T12:26:09.181Z,99377.31
2023-01-13T12:28:45.825Z,99393.47
2023-01-13T12:31:15.207Z,99386.56
2023-01-13T12:33:55.650Z,99386.03
2023-01-13T12:36:30.419Z,99379.31
2023-01-13T12:39:06.476Z,99378.31
2023-01-13T12:42:03.379Z,99361.38
2023-01-13T12:44:31.635Z,99364.41
2023-01-13T12:47:01.032Z,99378.88
2023-01-13T12:49:31.218Z,99368.47
2023-01-13T12:52:12.619Z,99382.38
2023-01-13T12:55:15.670Z,99392.63
2023-01-13T12:58:15.215Z,99391.72
2023-01-13T13:01:00.966Z,99406.38
2023-01-13T13:03:36.567Z,99422.59
2023-01-13T13:06:20.510Z,99434.94
2023-01-13T13:09:03.952Z,99419.53
2023-01-13T13:12:03.465Z,99417.59
2023-01-13T13:15:06.738Z,99418.94
2023-01-13T13:18:01.012Z,99408.94
2023-01-13T13:20:54.947Z,99422.03
2023-01-13T13:23:29.122Z,99435.88
2023-01-13T13:26:04.657Z,99430.19
2023-01-13T13:28:38.024Z,99426.81
2023-01-13T13:31:26.376Z,99424.38
2023-01-13T13:34:13.995Z,99431.88
2023-01-13T13:36:58.141Z,99444.69
2023-01-13T13:39:47.249Z,99453.03
2023-01-13T13:42:38.051Z,99448.72
2023-01-13T13:45:33.391Z,99463.53
2023-01-13T13:48:03.166Z,99463.88
2023-01-13T13:50:35.105Z,99481.47
2023-01-13T13:53:07.116Z,99479.28
2023-01-13T13:55:35.505Z,99481.84
2023-01-13T13:58:03.838Z,99482.69
2023-01-13T14:00:35.472Z,99483.13
2023-01-13T14:03:05.125Z,99492.81
2023-01-13T14:05:35.986Z,99493.75
2023-01-13T14:08:14.191Z,99500.13
2023-01-13T14:10:44.841Z,99507.59
2023-01-13T14:13:19.736Z,99504.16
2023-01-13T14:15:48.140Z,99516.63
2023-01-13T14:18:18.817Z,99525.81
2023-01-13T14:20:55.720Z,99531.75
2023-01-13T14:23:27.489Z,99529.28
2023-01-13T14:25:55.956Z,99533.00
2023-01-13T14:28:27.751Z,99543.06
2023-01-13T14:30:57.571Z,99549.97
2023-01-13T14:33:34.277Z,99550.75
2023-01-13T14:36:12.384Z,99563.72
2023-01-13T14:38:40.161Z,99564.91
2023-01-13T14:41:20.380Z,99562.81
2023-01-13T14:43:50.720Z,99559.38
2023-01-13T14:46:21.077Z,99555.31
2023-01-13T14:48:50.711Z,99566.56
2023-01-13T14:51:29.117Z,99564.31
2023-01-13T14:53:57.948Z,99563.56
2023-01-13T14:56:47.331Z,99573.28
2023-01-13T14:59:57.360Z,99579.03
2023-01-13T15:02:43.709Z,99592.91
2023-01-13T15:05:33.947Z,99591.59
2023-01-13T15:08:09.168Z,99600.84
2023-01-13T15:10:45.819Z,99613.53
2023-01-13T15:13:23.602Z,99608.41
2023-01-13T15:15:56.795Z,99617.28
2023-01-13T15:18:24.759Z,99618.31
2023-01-13T15:20:52.475Z,99618.47
2023-01-13T15:23:22.136Z,99628.06
2023-01-13T15:25:50.322Z,99631.72
2023-01-13T15:28:20.572Z,99629.44
2023-01-13T15:30:49.232Z,99642.00
2023-01-13T15:33:17.554Z,99642.19
2023-01-13T15:35:47.463Z,99654.91
2023-01-13T15:38:18.585Z,99653.75
2023-01-13T15:40:48.490Z,99666.25
2023-01-13T15:43:35.251Z,99672.50
2023-01-13T15:46:22.842Z,99668.75
2023-01-13T15:48:54.752Z,99677.44
2023-01-13T15:51:22.889Z,99679.75
2023-01-13T15:53:50.658Z,99696.03
2023-01-13T15:56:24.518Z,99686.50
2023-01-13T15:58:52.265Z,99693.41
2023-01-13T16:01:20.271Z,99685.16
2023-01-13T16:03:48.163Z,99690.44
2023-01-13T16:06:20.076Z,99692.44
2023-01-13T16:08:47.836Z,99699.97
2023-01-13T16:11:15.577Z,99714.13
2023-01-13T16:13:44.625Z,99710.84
2023-01-13T16:16:19.046Z,99713.81
2023-01-13T16:18:46.944Z,99715.13
2023-01-13T16:21:15.303Z,99723.84
2023-01-13T16:23:43.281Z,99718.91
2023-01-13T16:26:18.927Z,99729.44
2023-01-13T16:28:48.420Z,99720.56
2023-01-13T16:31:19.633Z,99727.31
2023-01-13T16:33:47.440Z,99734.88
2023-01-13T16:36:16.310Z,99732.56
2023-01-13T16:38:44.842Z,99727.63
2023-01-13T16:41:12.561Z,99743.91
2023-01-13T16:43:40.322Z,99745.09
2023-01-13T16:46:22.855Z,99737.16
2023-01-13T16:48:52.831Z,99729.75
2023-01-13T16:51:21.352Z,99736.50
2023-01-13T16:53:49.555Z,99744.22
2023-01-13T16:56:22.081Z,99740.59
2023-01-13T16:58:49.891Z,99748.19
2023-01-13T17:01:22.566Z,99754.59
2023-01-13T17:03:51.477Z,99757.22
2023-01-13T17:06:22.422Z,99765.47
2023-01-13T17:08:50.193Z,99769.25
2023-01-13T17:11:17.894Z,99767.59
2023-01-13T17:13:45.637Z,99774.22
2023-01-13T17:16:24.399Z,99789.19
2023-01-13T17:18:52.137Z,99788.16
2023-01-13T17:21:19.928Z,99790.78
2023-01-13T17:23:47.633Z,99792.28
2023-01-13T17:26:28.963Z,99812.69
2023-01-13T17:28:56.783Z,99791.00
2023-01-13T17:31:25.973Z,99787.38
2023-01-13T17:33:53.690Z,99802.34
2023-01-13T17:36:21.422Z,99819.59
2023-01-13T17:38:49.242Z,99799.53
2023-01-13T17:41:16.947Z,99830.97
2023-01-13T17:43:44.621Z,99821.75
2023-01-13T17:46:13.508Z,99839.19
2023-01-13T17:48:42.591Z,99844.94
2023-01-13T17:51:13.113Z,99849.06
2023-01-13T17:53:41.280Z,99826.19
2023-01-13T17:56:10.361Z,99837.22
2023-01-13T17:58:38.621Z,99833.78
2023-01-13T18:01:09.232Z,99844.31
2023-01-13T18:03:37.993Z,99846.25
2023-01-13T18:06:09.996Z,99859.09
2023-01-13T18:08:37.682Z,99848.56
2023-01-13T18:11:05.626Z,99857.09
2023-01-13T18:13:34.697Z,99852.00
2023-01-13T18:16:04.866Z,99860.72
2023-01-13T18:18:34.292Z,99862.22
2023-01-13T18:21:20.197Z,99873.41
2023-01-13T18:24:12.244Z,99872.44
2023-01-13T18:26:57.263Z,99862.38
2023-01-13T18:29:25.016Z,99877.03
2023-01-13T18:31:53.200Z,99882.97
2023-01-13T18:34:21.470Z,99883.47
2023-01-13T18:36:49.234Z,99879.03
2023-01-13T18:39:18.943Z,99882.97
2023-01-13T18:42:04.005Z,99886.13
2023-01-13T18:44:31.711Z,99890.06
2023-01-13T18:46:59.397Z,99893.50
2023-01-13T18:49:27.158Z,99889.06
2023-01-13T18:51:54.917Z,99898.47
2023-01-13T18:54:23.987Z,99895.84
2023-01-13T18:56:51.712Z,99911.97
2023-01-13T18:59:19.569Z,99906.38
2023-01-13T19:01:47.283Z,99908.66
2023-01-13T19:04:18.010Z,99912.47
2023-01-13T19:06:51.362Z,99920.56
2023-01-13T19:09:20.515Z,99924.00
2023-01-13T19:11:50.471Z,99921.69
2023-01-13T19:14:34.079Z,99934.72
2023-01-13T19:17:02.878Z,99935.53
2023-01-13T19:19:31.262Z,99936.22
2023-01-13T19:21:59.167Z,99955.28
2023-01-13T19:24:26.965Z,99954.31
2023-01-13T19:26:56.007Z,99945.09
2023-01-13T19:29:23.845Z,99952.19
2023-01-13T19:31:51.556Z,99961.75
2023-01-13T19:34:19.343Z,99961.75
2023-01-13T19:36:47.086Z,99972.75
2023-01-13T19:39:14.963Z,99974.56
2023-01-13T19:42:00.355Z,99973.09
2023-01-13T19:44:43.304Z,99980.16
2023-01-13T19:47:11.005Z,99986.72
2023-01-13T19:49:38.827Z,99997.41
2023-01-13T19:52:06.537Z,100000.03
2023-01-13T19:54:34.232Z,99994.88
2023-01-13T19:57:02.095Z,100007.72
2023-01-13T19:59:32.499Z,100000.13
2023-01-13T20:02:01.713Z,100013.28
2023-01-13T20:04:37.443Z,100030.72
2023-01-13T20:07:05.822Z,100015.63
2023-01-13T20:09:34.464Z,100019.72
2023-01-13T20:12:03.701Z,100025.66
2023-01-13T20:14:32.812Z,100036.03
2023-01-13T20:17:00.574Z,100037.31
2023-01-13T20:19:28.317Z,100042.72
2023-01-13T20:21:56.085Z,100046.66
2023-01-13T20:24:25.980Z,100043.38
2023-01-13T20:26:55.194Z,100047.47
2023-01-13T20:29:23.470Z,100057.69
2023-01-13T20:31:52.503Z,100056.38
2023-01-13T20:34:20.322Z,100061.84
2023-01-13T20:36:49.501Z,100079.69
2023-01-13T20:39:19.077Z,100067.00
2023-01-13T20:42:04.997Z,100084.66
2023-01-13T20:44:32.930Z,100075.47
2023-01-13T20:47:02.862Z,100079.72
2023-01-13T20:49:31.196Z,100085.34
2023-01-13T20:51:59.104Z,100083.56
2023-01-13T20:54:26.959Z,100088.81
2023-01-13T20:56:55.103Z,100093.56
2023-01-13T20:59:23.776Z,100106.75
2023-01-13T21:01:51.520Z,100100.78
2023-01-13T21:04:20.696Z,100101.59
2023-01-13T21:06:49.808Z,100100.25
2023-01-13T21:09:17.606Z,100094.47
2023-01-13T21:12:02.965Z,100104.84
2023-01-13T21:14:48.446Z,100104.34
2023-01-13T21:17:33.465Z,100109.91
2023-01-13T21:20:04.417Z,100117.97
2023-01-13T21:22:32.399Z,100111.88
2023-01-13T21:25:00.154Z,100119.63
2023-01-13T21:27:27.932Z,100123.25
2023-01-13T21:29:55.650Z,100122.41
2023-01-13T21:32:23.460Z,100123.25
2023-01-13T21:34:51.300Z,100119.97
2023-01-13T21:37:20.587Z,100128.00
2023-01-13T21:39:48.390Z,100123.41
2023-01-13T21:42:34.247Z,100130.16
2023-01-13T21:45:19.631Z,100143.47
2023-01-13T21:47:50.400Z,100133.47
2023-01-13T21:50:19.866Z,100139.09
2023-01-13T21:52:52.325Z,100146.84
2023-01-13T21:55:25.259Z,100135.28
2023-01-13T21:57:55.803Z,100152.09
2023-01-13T22:00:26.803Z,100160.16
2023-01-13T22:02:55.046Z,100148.94
2023-01-13T22:05:25.359Z,100164.44
2023-01-13T22:07:54.601Z,100165.28
2023-01-13T22:10:24.909Z,100162.78
2023-01-13T22:12:54.176Z,100170.19
2023-01-13T22:15:25.275Z,100171.84
2023-01-13T22:17:54.084Z,100180.72
2023-01-13T22:20:22.301Z,100184.47
2023-01-13T22:22:50.348Z,100182.31
2023-01-13T22:25:20.259Z,100195.16
2023-01-13T22:27:49.160Z,100184.97
2023-01-13T22:30:18.780Z,100182.81
2023-01-13T22:32:47.368Z,100185.16
2023-01-13T22:35:16.662Z,100177.25
2023-01-13T22:37:44.366Z,100185.00
2023-01-13T22:40:13.228Z,100204.44
2023-01-13T22:42:43.597Z,100194.88
2023-01-13T22:45:13.983Z,100192.09
2023-01-13T22:47:42.274Z,100197.84
2023-01-13T22:50:12.465Z,100206.28
2023-01-13T22:52:40.284Z,100200.34
2023-01-13T22:55:09.178Z,100215.47
2023-01-13T22:57:47.286Z,100216.97
2023-01-13T23:00:19.464Z,100211.84
2023-01-13T23:02:47.238Z,100225.84
2023-01-13T23:05:15.243Z,100226.81
2023-01-13T23:07:42.919Z,100228.47
2023-01-13T23:10:11.768Z,100222.53
2023-01-13T23:12:39.983Z,100225.63
2023-01-13T23:15:08.396Z,100227.25
2023-01-13T23:17:37.856Z,100214.31
2023-01-13T23:20:06.169Z,100229.66
2023-01-13T23:22:35.992Z,100235.47
2023-01-13T23:25:03.720Z,100229.44
2023-01-13T23:27:31.422Z,100233.13
2023-01-13T23:29:59.126Z,100238.47
2023-01-13T23:32:27.013Z,100232.44
2023-01-13T23:34:56.085Z,100239.56
2023-01-13T23:37:23.727Z,100237.13
2023-01-13T23:39:51.485Z,100248.53
2023-01-13T23:42:19.184Z,100250.09
2023-01-13T23:44:46.872Z,100237.09
2023-01-13T23:47:14.570Z,100234.47
2023-01-13T23:49:42.250Z,100254.34
2023-01-13T23:52:12.422Z,100249.78
2023-01-13T23:54:40.216Z,100252.28
2023-01-13T23:57:07.907Z,100248.53
2023-01-13T23:59:35.607Z,100242.97
